sensor_id;sensor_type;location;lat;lon;timestamp;pressure;altitude;pressure_sealevel;temperature;humidity
7670;BME280;3877;42.562;27.636;2023-02-18T11:48:22;101902.56;;;14.63;100.00
7670;BME280;3877;42.562;27.636;2023-02-18T11:50:50;101880.75;;;14.77;99.35
7670;BME280;3877;42.562;27.636;2023-02-18T11:53:29;101890.97;;;14.95;96.44
7670;BME280;3877;42.562;27.636;2023-02-18T11:55:58;101876.06;;;15.12;95.10
7670;BME280;3877;42.562;27.636;2023-02-18T11:58:26;101830.69;;;14.91;94.31
7670;BME280;3877;42.562;27.636;2023-02-18T12:00:59;101875.19;;;15.42;91.18
7670;BME280;3877;42.562;27.636;2023-02-18T12:03:36;101864.56;;;15.48;90.44
7670;BME280;3877;42.562;27.636;2023-02-18T14:31:32;101759.28;;;14.42;96.46
7670;BME280;3877;42.562;27.636;2023-02-18T14:34:27;101763.09;;;14.47;95.55
7670;BME280;3877;42.562;27.636;2023-02-18T14:37:02;101763.97;;;14.56;94.62
7670;BME280;3877;42.562;27.636;2023-02-18T14:39:44;64912.53;;;-140.87;100.00
7670;BME280;3877;42.562;27.636;2023-02-18T14:42:23;64912.53;;;-140.87;100.00
7670;BME280;3877;42.562;27.636;2023-02-18T14:45:05;64912.53;;;-140.87;100.00
7670;BME280;3877;42.562;27.636;2023-02-18T14:47:47;64912.53;;;-140.87;100.00
7670;BME280;3877;42.562;27.636;2023-02-18T14:50:19;64912.53;;;-140.87;100.00
7670;BME280;3877;42.562;27.636;2023-02-18T14:52:48;64912.53;;;-140.87;100.00
7670;BME280;3877;42.562;27.636;2023-02-18T14:55:19;64912.53;;;-140.87;100.00
7670;BME280;3877;42.562;27.636;2023-02-18T14:57:50;64912.53;;;-140.87;100.00
7670;BME280;3877;42.562;27.636;2023-02-18T15:00:20;64912.53;;;-140.87;100.00
7670;BME280;3877;42.562;27.636;2023-02-18T15:02:51;64912.53;;;-140.87;100.00
7670;BME280;3877;42.562;27.636;2023-02-18T15:05:22;64912.53;;;-140.87;100.00
7670;BME280;3877;42.562;27.636;2023-02-18T15:07:58;64912.53;;;-140.87;100.00
7670;BME280;3877;42.562;27.636;2023-02-18T15:10:37;64912.53;;;-140.87;100.00
7670;BME280;3877;42.562;27.636;2023-02-18T15:13:08;64912.53;;;-140.87;100.00
7670;BME280;3877;42.562;27.636;2023-02-18T15:15:40;64912.53;;;-140.87;100.00
7670;BME280;3877;42.562;27.636;2023-02-18T15:18:20;64912.53;;;-140.87;100.00
7670;BME280;3877;42.562;27.636;2023-02-18T15:20:48;64912.53;;;-140.87;100.00
7670;BME280;3877;42.562;27.636;2023-02-18T15:23:16;64912.53;;;-140.87;100.00
7670;BME280;3877;42.562;27.636;2023-02-18T15:25:48;64912.53;;;-140.87;100.00
7670;BME280;3877;42.562;27.636;2023-02-18T15:28:25;64912.53;;;-140.87;100.00
7670;BME280;3877;42.562;27.636;2023-02-18T15:30:52;64912.53;;;-140.87;100.00
7670;BME280;3877;42.562;27.636;2023-02-18T15:33:23;64912.53;;;-140.87;100.00
7670;BME280;3877;42.562;27.636;2023-02-18T15:35:50;64912.53;;;-140.87;100.00
7670;BME280;3877;42.562;27.636;2023-02-18T15:38:18;64912.53;;;-140.87;100.00
7670;BME280;3877;42.562;27.636;2023-02-18T15:40:48;64912.53;;;-140.87;100.00
7670;BME280;3877;42.562;27.636;2023-02-18T15:43:19;64912.53;;;-140.87;100.00
7670;BME280;3877;42.562;27.636;2023-02-18T15:45:49;64912.53;;;-140.87;100.00
7670;BME280;3877;42.562;27.636;2023-02-18T15:48:41;64912.53;;;-140.87;100.00
7670;BME280;3877;42.562;27.636;2023-02-18T15:51:11;64912.53;;;-140.87;100.00
7670;BME280;3877;42.562;27.636;2023-02-18T15:53:41;64912.53;;;-140.87;100.00
7670;BME280;3877;42.562;27.636;2023-02-18T15:56:09;64912.53;;;-140.87;100.00
7670;BME280;3877;42.562;27.636;2023-02-18T15:58:41;64912.53;;;-140.87;100.00
7670;BME280;3877;42.562;27.636;2023-02-18T16:01:25;64912.53;;;-140.87;100.00
7670;BME280;3877;42.562;27.636;2023-02-18T16:03:55;64912.53;;;-140.87;100.00
7670;BME280;3877;42.562;27.636;2023-02-18T16:06:24;64912.53;;;-140.87;100.00
7670;BME280;3877;42.562;27.636;2023-02-18T16:08:58;64912.53;;;-140.87;100.00
7670;BME280;3877;42.562;27.636;2023-02-18T16:11:27;64912.53;;;-140.87;100.00
7670;BME280;3877;42.562;27.636;2023-02-18T16:13:57;64912.53;;;-140.87;100.00
7670;BME280;3877;42.562;27.636;2023-02-18T16:16:28;64912.53;;;-140.87;100.00
7670;BME280;3877;42.562;27.636;2023-02-18T16:18:58;64912.53;;;-140.87;100.00
7670;BME280;3877;42.562;27.636;2023-02-18T16:21:31;64912.53;;;-140.87;100.00
7670;BME280;3877;42.562;27.636;2023-02-18T16:24:01;64912.53;;;-140.87;100.00
7670;BME280;3877;42.562;27.636;2023-02-18T16:26:30;64912.53;;;-140.87;100.00
7670;BME280;3877;42.562;27.636;2023-02-18T16:29:09;64912.53;;;-140.87;100.00
7670;BME280;3877;42.562;27.636;2023-02-18T16:31:37;64912.53;;;-140.87;100.00
7670;BME280;3877;42.562;27.636;2023-02-18T16:34:06;64912.53;;;-140.87;100.00
7670;BME280;3877;42.562;27.636;2023-02-18T16:36:33;64912.53;;;-140.87;100.00
7670;BME280;3877;42.562;27.636;2023-02-18T16:39:01;64912.53;;;-140.87;100.00
7670;BME280;3877;42.562;27.636;2023-02-18T16:41:28;64912.53;;;-140.87;100.00
7670;BME280;3877;42.562;27.636;2023-02-18T16:43:56;64912.53;;;-140.87;100.00
7670;BME280;3877;42.562;27.636;2023-02-18T16:46:23;64912.53;;;-140.87;100.00
7670;BME280;3877;42.562;27.636;2023-02-18T16:48:52;64912.53;;;-140.87;100.00
7670;BME280;3877;42.562;27.636;2023-02-18T16:51:24;64912.53;;;-140.87;100.00
7670;BME280;3877;42.562;27.636;2023-02-18T16:53:55;64912.53;;;-140.87;100.00
7670;BME280;3877;42.562;27.636;2023-02-18T16:56:25;64912.53;;;-140.87;100.00
7670;BME280;3877;42.562;27.636;2023-02-18T16:58:53;64912.53;;;-140.87;100.00
7670;BME280;3877;42.562;27.636;2023-02-18T17:01:23;64912.53;;;-140.87;100.00
7670;BME280;3877;42.562;27.636;2023-02-18T17:03:52;64912.53;;;-140.87;100.00
7670;BME280;3877;42.562;27.636;2023-02-18T17:06:20;64912.53;;;-140.87;100.00
7670;BME280;3877;42.562;27.636;2023-02-18T17:08:49;64912.53;;;-140.87;100.00
7670;BME280;3877;42.562;27.636;2023-02-18T17:11:19;64912.53;;;-140.87;100.00
7670;BME280;3877;42.562;27.636;2023-02-18T17:13:47;64912.53;;;-140.87;100.00
7670;BME280;3877;42.562;27.636;2023-02-18T17:16:15;64912.53;;;-140.87;100.00
7670;BME280;3877;42.562;27.636;2023-02-18T17:18:43;64912.53;;;-140.87;100.00
7670;BME280;3877;42.562;27.636;2023-02-18T17:21:13;64912.53;;;-140.87;100.00
7670;BME280;3877;42.562;27.636;2023-02-18T17:23:41;64912.53;;;-140.87;100.00
7670;BME280;3877;42.562;27.636;2023-02-18T17:26:16;64912.53;;;-140.87;100.00
7670;BME280;3877;42.562;27.636;2023-02-18T17:28:44;64912.53;;;-140.87;100.00
7670;BME280;3877;42.562;27.636;2023-02-18T17:31:14;64912.53;;;-140.87;100.00
7670;BME280;3877;42.562;27.636;2023-02-18T17:33:43;64912.53;;;-140.87;100.00
7670;BME280;3877;42.562;27.636;2023-02-18T17:36:11;64912.53;;;-140.87;100.00
7670;BME280;3877;42.562;27.636;2023-02-18T17:38:39;64912.53;;;-140.87;100.00
7670;BME280;3877;42.562;27.636;2023-02-18T17:41:06;64912.53;;;-140.87;100.00
7670;BME280;3877;42.562;27.636;2023-02-18T17:43:35;64912.53;;;-140.87;100.00
7670;BME280;3877;42.562;27.636;2023-02-18T17:46:03;64912.53;;;-140.87;100.00
7670;BME280;3877;42.562;27.636;2023-02-18T17:48:31;64912.53;;;-140.87;100.00
7670;BME280;3877;42.562;27.636;2023-02-18T17:50:58;64912.53;;;-140.87;100.00
7670;BME280;3877;42.562;27.636;2023-02-18T17:53:28;64912.53;;;-140.87;100.00
7670;BME280;3877;42.562;27.636;2023-02-18T17:55:55;64912.53;;;-140.87;100.00
7670;BME280;3877;42.562;27.636;2023-02-18T17:58:23;64912.53;;;-140.87;100.00
7670;BME280;3877;42.562;27.636;2023-02-18T18:00:56;64912.53;;;-140.87;100.00
7670;BME280;3877;42.562;27.636;2023-02-18T18:03:23;64912.53;;;-140.87;100.00
7670;BME280;3877;42.562;27.636;2023-02-18T18:05:50;64912.53;;;-140.87;100.00
7670;BME280;3877;42.562;27.636;2023-02-18T18:08:19;64912.53;;;-140.87;100.00
7670;BME280;3877;42.562;27.636;2023-02-18T18:10:47;64912.53;;;-140.87;100.00
7670;BME280;3877;42.562;27.636;2023-02-18T18:13:18;64912.53;;;-140.87;100.00
7670;BME280;3877;42.562;27.636;2023-02-18T18:15:47;64912.53;;;-140.87;100.00
7670;BME280;3877;42.562;27.636;2023-02-18T18:18:15;64912.53;;;-140.87;100.00
7670;BME280;3877;42.562;27.636;2023-02-18T18:20:45;64912.53;;;-140.87;100.00
7670;BME280;3877;42.562;27.636;2023-02-18T18:23:14;64912.53;;;-140.87;100.00
7670;BME280;3877;42.562;27.636;2023-02-18T18:25:42;64912.53;;;-140.87;100.00
7670;BME280;3877;42.562;27.636;2023-02-18T18:28:10;64912.53;;;-140.87;100.00
7670;BME280;3877;42.562;27.636;2023-02-18T18:30:39;64912.53;;;-140.87;100.00
7670;BME280;3877;42.562;27.636;2023-02-18T18:33:13;64912.53;;;-140.87;100.00
7670;BME280;3877;42.562;27.636;2023-02-18T18:35:44;64912.53;;;-140.87;100.00
7670;BME280;3877;42.562;27.636;2023-02-18T18:38:13;64912.53;;;-140.87;100.00
7670;BME280;3877;42.562;27.636;2023-02-18T18:40:40;64912.53;;;-140.87;100.00
7670;BME280;3877;42.562;27.636;2023-02-18T18:43:11;64912.53;;;-140.87;100.00
7670;BME280;3877;42.562;27.636;2023-02-18T18:45:42;64912.53;;;-140.87;100.00
7670;BME280;3877;42.562;27.636;2023-02-18T18:48:09;64912.53;;;-140.87;100.00
7670;BME280;3877;42.562;27.636;2023-02-18T18:50:36;64912.53;;;-140.87;100.00
7670;BME280;3877;42.562;27.636;2023-02-18T18:53:15;64912.53;;;-140.87;100.00
7670;BME280;3877;42.562;27.636;2023-02-18T18:55:43;64912.53;;;-140.87;100.00
7670;BME280;3877;42.562;27.636;2023-02-18T18:58:10;64912.53;;;-140.87;100.00
7670;BME280;3877;42.562;27.636;2023-02-18T19:00:40;64912.53;;;-140.87;100.00
7670;BME280;3877;42.562;27.636;2023-02-18T19:03:12;64912.53;;;-140.87;100.00
7670;BME280;3877;42.562;27.636;2023-02-18T19:05:40;64912.53;;;-140.87;100.00
7670;BME280;3877;42.562;27.636;2023-02-18T19:08:13;64912.53;;;-140.87;100.00
7670;BME280;3877;42.562;27.636;2023-02-18T19:10:44;64912.53;;;-140.87;100.00
7670;BME280;3877;42.562;27.636;2023-02-18T19:13:13;64912.53;;;-140.87;100.00
7670;BME280;3877;42.562;27.636;2023-02-18T19:15:41;64912.53;;;-140.87;100.00
7670;BME280;3877;42.562;27.636;2023-02-18T19:18:12;64912.53;;;-140.87;100.00
7670;BME280;3877;42.562;27.636;2023-02-18T19:20:40;64912.53;;;-140.87;100.00
7670;BME280;3877;42.562;27.636;2023-02-18T19:23:11;64912.53;;;-140.87;100.00
7670;BME280;3877;42.562;27.636;2023-02-18T19:25:39;64912.53;;;-140.87;100.00
7670;BME280;3877;42.562;27.636;2023-02-18T19:28:07;64912.53;;;-140.87;100.00
7670;BME280;3877;42.562;27.636;2023-02-18T19:30:38;64912.53;;;-140.87;100.00
7670;BME280;3877;42.562;27.636;2023-02-18T19:33:07;64912.53;;;-140.87;100.00
7670;BME280;3877;42.562;27.636;2023-02-18T19:35:34;64912.53;;;-140.87;100.00
7670;BME280;3877;42.562;27.636;2023-02-18T19:38:06;64912.53;;;-140.87;100.00
7670;BME280;3877;42.562;27.636;2023-02-18T19:40:36;64912.53;;;-140.87;100.00
7670;BME280;3877;42.562;27.636;2023-02-18T19:43:03;64912.53;;;-140.87;100.00
7670;BME280;3877;42.562;27.636;2023-02-18T19:45:31;64912.53;;;-140.87;100.00
7670;BME280;3877;42.562;27.636;2023-02-18T19:48:00;64912.53;;;-140.87;100.00
7670;BME280;3877;42.562;27.636;2023-02-18T19:50:28;64912.53;;;-140.87;100.00
7670;BME280;3877;42.562;27.636;2023-02-18T19:52:56;64912.53;;;-140.87;100.00
7670;BME280;3877;42.562;27.636;2023-02-18T19:55:25;64912.53;;;-140.87;100.00
7670;BME280;3877;42.562;27.636;2023-02-18T19:57:53;64912.53;;;-140.87;100.00
7670;BME280;3877;42.562;27.636;2023-02-18T20:00:21;64912.53;;;-140.87;100.00
7670;BME280;3877;42.562;27.636;2023-02-18T20:02:48;64912.53;;;-140.87;100.00
7670;BME280;3877;42.562;27.636;2023-02-18T20:05:16;64912.53;;;-140.87;100.00
7670;BME280;3877;42.562;27.636;2023-02-18T20:07:43;64912.53;;;-140.87;100.00
7670;BME280;3877;42.562;27.636;2023-02-18T20:10:13;64912.53;;;-140.87;100.00
7670;BME280;3877;42.562;27.636;2023-02-18T20:12:41;64912.53;;;-140.87;100.00
7670;BME280;3877;42.562;27.636;2023-02-18T20:15:10;64912.53;;;-140.87;100.00
7670;BME280;3877;42.562;27.636;2023-02-18T20:17:37;64912.53;;;-140.87;100.00
7670;BME280;3877;42.562;27.636;2023-02-18T20:20:05;64912.53;;;-140.87;100.00
7670;BME280;3877;42.562;27.636;2023-02-18T20:22:33;64912.53;;;-140.87;100.00
7670;BME280;3877;42.562;27.636;2023-02-18T20:25:00;64912.53;;;-140.87;100.00
7670;BME280;3877;42.562;27.636;2023-02-18T20:27:27;64912.53;;;-140.87;100.00
7670;BME280;3877;42.562;27.636;2023-02-18T20:29:54;64912.53;;;-140.87;100.00
7670;BME280;3877;42.562;27.636;2023-02-18T20:32:23;64912.53;;;-140.87;100.00
7670;BME280;3877;42.562;27.636;2023-02-18T20:34:50;64912.53;;;-140.87;100.00
7670;BME280;3877;42.562;27.636;2023-02-18T20:37:17;64912.53;;;-140.87;100.00
7670;BME280;3877;42.562;27.636;2023-02-18T20:39:44;64912.53;;;-140.87;100.00
7670;BME280;3877;42.562;27.636;2023-02-18T20:42:11;64912.53;;;-140.87;100.00
7670;BME280;3877;42.562;27.636;2023-02-18T20:44:39;64912.53;;;-140.87;100.00
7670;BME280;3877;42.562;27.636;2023-02-18T20:47:06;64912.53;;;-140.87;100.00
7670;BME280;3877;42.562;27.636;2023-02-18T20:49:34;64912.53;;;-140.87;100.00
7670;BME280;3877;42.562;27.636;2023-02-18T20:52:01;64912.53;;;-140.87;100.00
7670;BME280;3877;42.562;27.636;2023-02-18T20:54:29;64912.53;;;-140.87;100.00
7670;BME280;3877;42.562;27.636;2023-02-18T20:56:56;64912.53;;;-140.87;100.00
7670;BME280;3877;42.562;27.636;2023-02-18T20:59:23;64912.53;;;-140.87;100.00
7670;BME280;3877;42.562;27.636;2023-02-18T21:01:54;64912.53;;;-140.87;100.00
7670;BME280;3877;42.562;27.636;2023-02-18T21:04:21;64912.53;;;-140.87;100.00
7670;BME280;3877;42.562;27.636;2023-02-18T21:06:50;64912.53;;;-140.87;100.00
7670;BME280;3877;42.562;27.636;2023-02-18T21:09:17;64912.53;;;-140.87;100.00
7670;BME280;3877;42.562;27.636;2023-02-18T21:11:46;64912.53;;;-140.87;100.00
7670;BME280;3877;42.562;27.636;2023-02-18T21:14:13;64912.53;;;-140.87;100.00
7670;BME280;3877;42.562;27.636;2023-02-18T21:16:40;64912.53;;;-140.87;100.00
7670;BME280;3877;42.562;27.636;2023-02-18T21:19:11;64912.53;;;-140.87;100.00
7670;BME280;3877;42.562;27.636;2023-02-18T21:21:39;64912.53;;;-140.87;100.00
7670;BME280;3877;42.562;27.636;2023-02-18T21:24:08;64912.53;;;-140.87;100.00
7670;BME280;3877;42.562;27.636;2023-02-18T21:26:36;64912.53;;;-140.87;100.00
7670;BME280;3877;42.562;27.636;2023-02-18T21:29:05;64912.53;;;-140.87;100.00
7670;BME280;3877;42.562;27.636;2023-02-18T21:31:34;64912.53;;;-140.87;100.00
7670;BME280;3877;42.562;27.636;2023-02-18T21:34:02;64912.53;;;-140.87;100.00
7670;BME280;3877;42.562;27.636;2023-02-18T21:36:30;64912.53;;;-140.87;100.00
7670;BME280;3877;42.562;27.636;2023-02-18T21:39:00;64912.53;;;-140.87;100.00
7670;BME280;3877;42.562;27.636;2023-02-18T21:41:33;64912.53;;;-140.87;100.00
7670;BME280;3877;42.562;27.636;2023-02-18T21:44:01;64912.53;;;-140.87;100.00
7670;BME280;3877;42.562;27.636;2023-02-18T21:46:30;64912.53;;;-140.87;100.00
7670;BME280;3877;42.562;27.636;2023-02-18T21:48:58;64912.53;;;-140.87;100.00
7670;BME280;3877;42.562;27.636;2023-02-18T21:51:33;64912.53;;;-140.87;100.00
7670;BME280;3877;42.562;27.636;2023-02-18T21:54:18;64912.53;;;-140.87;100.00
7670;BME280;3877;42.562;27.636;2023-02-18T21:56:47;64912.53;;;-140.87;100.00
7670;BME280;3877;42.562;27.636;2023-02-18T21:59:15;64912.53;;;-140.87;100.00
7670;BME280;3877;42.562;27.636;2023-02-18T22:01:42;64912.53;;;-140.87;100.00
7670;BME280;3877;42.562;27.636;2023-02-18T22:04:10;64912.53;;;-140.87;100.00
7670;BME280;3877;42.562;27.636;2023-02-18T22:06:37;64912.53;;;-140.87;100.00
7670;BME280;3877;42.562;27.636;2023-02-18T22:09:05;64912.53;;;-140.87;100.00
7670;BME280;3877;42.562;27.636;2023-02-18T22:11:36;64912.53;;;-140.87;100.00
7670;BME280;3877;42.562;27.636;2023-02-18T22:14:04;64912.53;;;-140.87;100.00
7670;BME280;3877;42.562;27.636;2023-02-18T22:16:33;64912.53;;;-140.87;100.00
7670;BME280;3877;42.562;27.636;2023-02-18T22:19:00;64912.53;;;-140.87;100.00
7670;BME280;3877;42.562;27.636;2023-02-18T22:21:28;64912.53;;;-140.87;100.00
7670;BME280;3877;42.562;27.636;2023-02-18T22:23:55;64912.53;;;-140.87;100.00
7670;BME280;3877;42.562;27.636;2023-02-18T22:26:22;64912.53;;;-140.87;100.00
7670;BME280;3877;42.562;27.636;2023-02-18T22:28:50;64912.53;;;-140.87;100.00
7670;BME280;3877;42.562;27.636;2023-02-18T22:31:20;64912.53;;;-140.87;100.00
7670;BME280;3877;42.562;27.636;2023-02-18T22:33:48;64912.53;;;-140.87;100.00
7670;BME280;3877;42.562;27.636;2023-02-18T22:36:18;64912.53;;;-140.87;100.00
7670;BME280;3877;42.562;27.636;2023-02-18T22:38:46;64912.53;;;-140.87;100.00
7670;BME280;3877;42.562;27.636;2023-02-18T22:41:15;64912.53;;;-140.87;100.00
7670;BME280;3877;42.562;27.636;2023-02-18T22:43:43;64912.53;;;-140.87;100.00
7670;BME280;3877;42.562;27.636;2023-02-18T22:46:13;64912.53;;;-140.87;100.00
7670;BME280;3877;42.562;27.636;2023-02-18T22:48:42;64912.53;;;-140.87;100.00
7670;BME280;3877;42.562;27.636;2023-02-18T22:51:12;64912.53;;;-140.87;100.00
7670;BME280;3877;42.562;27.636;2023-02-18T22:53:40;64912.53;;;-140.87;100.00
7670;BME280;3877;42.562;27.636;2023-02-18T22:56:10;64912.53;;;-140.87;100.00
7670;BME280;3877;42.562;27.636;2023-02-18T22:58:38;64912.53;;;-140.87;100.00
7670;BME280;3877;42.562;27.636;2023-02-18T23:01:06;64912.53;;;-140.87;100.00
7670;BME280;3877;42.562;27.636;2023-02-18T23:03:34;64912.53;;;-140.87;100.00
7670;BME280;3877;42.562;27.636;2023-02-18T23:06:04;64912.53;;;-140.87;100.00
7670;BME280;3877;42.562;27.636;2023-02-18T23:08:32;64912.53;;;-140.87;100.00
7670;BME280;3877;42.562;27.636;2023-02-18T23:11:00;64912.53;;;-140.87;100.00
7670;BME280;3877;42.562;27.636;2023-02-18T23:13:29;64912.53;;;-140.87;100.00
7670;BME280;3877;42.562;27.636;2023-02-18T23:16:01;64912.53;;;-140.87;100.00
7670;BME280;3877;42.562;27.636;2023-02-18T23:18:31;64912.53;;;-140.87;100.00
7670;BME280;3877;42.562;27.636;2023-02-18T23:20:59;64912.53;;;-140.87;100.00
7670;BME280;3877;42.562;27.636;2023-02-18T23:23:49;64912.53;;;-140.87;100.00
7670;BME280;3877;42.562;27.636;2023-02-18T23:26:17;64912.53;;;-140.87;100.00
7670;BME280;3877;42.562;27.636;2023-02-18T23:28:45;64912.53;;;-140.87;100.00
7670;BME280;3877;42.562;27.636;2023-02-18T23:31:16;64912.53;;;-140.87;100.00
7670;BME280;3877;42.562;27.636;2023-02-18T23:33:44;64912.53;;;-140.87;100.00
7670;BME280;3877;42.562;27.636;2023-02-18T23:36:13;64912.53;;;-140.87;100.00
7670;BME280;3877;42.562;27.636;2023-02-18T23:38:41;64912.53;;;-140.87;100.00
7670;BME280;3877;42.562;27.636;2023-02-18T23:41:09;64912.53;;;-140.87;100.00
7670;BME280;3877;42.562;27.636;2023-02-18T23:43:36;64912.53;;;-140.87;100.00
7670;BME280;3877;42.562;27.636;2023-02-18T23:46:04;64912.53;;;-140.87;100.00
7670;BME280;3877;42.562;27.636;2023-02-18T23:48:33;64912.53;;;-140.87;100.00
7670;BME280;3877;42.562;27.636;2023-02-18T23:51:02;64912.53;;;-140.87;100.00
7670;BME280;3877;42.562;27.636;2023-02-18T23:53:31;64912.53;;;-140.87;100.00
7670;BME280;3877;42.562;27.636;2023-02-18T23:56:03;64912.53;;;-140.87;100.00
7670;BME280;3877;42.562;27.636;2023-02-18T23:58:34;64912.53;;;-140.87;100.00
